createdAt,value
2019-02-20T00:02:23.649Z,95441.67
2019-02-20T00:04:49.649Z,95441.29
2019-02-20T00:07:15.650Z,95435.13
2019-02-20T00:09:41.644Z,95436.88
2019-02-20T00:12:07.643Z,95437.38
2019-02-20T00:14:33.645Z,95439.62
2019-02-20T00:16:59.641Z,95438.29
2019-02-20T00:19:25.658Z,95435.63
2019-02-20T00:21:51.637Z,95439.73
2019-02-20T00:24:17.634Z,95437.48
2019-02-20T00:26:43.633Z,95437.07
2019-02-20T00:29:09.638Z,95436.16
2019-02-20T00:31:35.635Z,95431.33
2019-02-20T00:34:01.633Z,95427.41
2019-02-20T00:36:27.654Z,95427.02
2019-02-20T00:38:53.637Z,95431.41
2019-02-20T00:41:19.634Z,95422.61
2019-02-20T00:43:45.627Z,95427.94
2019-02-20T00:46:11.634Z,95428.36
2019-02-20T00:48:37.638Z,95428.36
2019-02-20T00:51:03.639Z,95424.45
2019-02-20T00:53:29.642Z,95418.20
2019-02-20T00:55:55.632Z,95416.95
2019-02-20T00:58:21.634Z,95410.41
2019-02-20T01:00:47.626Z,95416.56
2019-02-20T01:03:13.623Z,95415.31
2019-02-20T01:05:39.623Z,95413.07
2019-02-20T01:08:05.624Z,95414.41
2019-02-20T01:10:31.623Z,95413.98
2019-02-20T01:12:57.624Z,95411.81
2019-02-20T01:15:23.625Z,95413.98
2019-02-20T01:17:49.623Z,95415.81
2019-02-20T01:20:15.622Z,95407.02
2019-02-20T01:22:41.625Z,95415.02
2019-02-20T01:25:07.620Z,95420.34
2019-02-20T01:27:33.622Z,95414.59
2019-02-20T01:29:59.624Z,95420.84
2019-02-20T01:32:25.627Z,95420.00
2019-02-20T01:34:51.626Z,95412.95
2019-02-20T01:37:17.627Z,95418.67
2019-02-20T01:39:43.633Z,95412.55
2019-02-20T01:42:09.631Z,95414.29
2019-02-20T01:44:35.627Z,95404.97
2019-02-20T01:47:01.628Z,95407.63
2019-02-20T01:49:27.621Z,95404.97
2019-02-20T01:51:53.620Z,95401.97
2019-02-20T01:54:19.621Z,95405.88
2019-02-20T01:56:45.616Z,95404.22
2019-02-20T01:59:11.627Z,95400.22
2019-02-20T02:01:37.621Z,95405.97
2019-02-20T02:04:03.609Z,95401.17
2019-02-20T02:06:29.608Z,95389.27
2019-02-20T02:08:55.607Z,95390.52
2019-02-20T02:11:21.612Z,95387.44
2019-02-20T02:13:47.605Z,95391.02
2019-02-20T02:16:13.599Z,95394.51
2019-02-20T02:18:39.591Z,95393.67
2019-02-20T02:21:05.583Z,95396.75
2019-02-20T02:23:31.579Z,95400.75
2019-02-20T02:25:57.587Z,95394.59
2019-02-20T02:28:23.587Z,95396.75
2019-02-20T02:30:49.578Z,95397.67
2019-02-20T02:33:15.589Z,95396.34
2019-02-20T02:35:41.585Z,95398.09
2019-02-20T02:38:07.589Z,95398.59
2019-02-20T02:40:33.580Z,95395.50
2019-02-20T02:42:59.578Z,95390.18
2019-02-20T02:45:25.572Z,95393.26
2019-02-20T02:47:51.571Z,95400.03
2019-02-20T02:50:17.572Z,95400.41
2019-02-20T02:52:43.599Z,95399.09
2019-02-20T02:55:09.564Z,95397.25
2019-02-20T02:57:35.564Z,95393.26
2019-02-20T03:00:01.561Z,95388.05
2019-02-20T03:02:27.558Z,95390.59
2019-02-20T03:04:53.554Z,95386.72
2019-02-20T03:07:19.555Z,95392.05
2019-02-20T03:09:45.550Z,95392.95
2019-02-20T03:12:11.547Z,95400.03
2019-02-20T03:14:37.548Z,95398.28
2019-02-20T03:17:03.543Z,95401.86
2019-02-20T03:19:29.543Z,95407.19
2019-02-20T03:21:55.547Z,95404.52
2019-02-20T03:24:21.539Z,95402.70
2019-02-20T03:26:47.545Z,95408.41
2019-02-20T03:29:13.537Z,95400.03
2019-02-20T03:31:39.531Z,95404.02
2019-02-20T03:34:08.705Z,95397.86
2019-02-20T03:36:31.534Z,95401.36
2019-02-20T03:38:57.541Z,95409.85
2019-02-20T03:41:23.548Z,95413.34
2019-02-20T03:43:49.545Z,95415.17
2019-02-20T03:46:15.542Z,95406.27
2019-02-20T03:48:41.549Z,95400.53
2019-02-20T03:51:07.543Z,95402.28
2019-02-20T03:53:33.542Z,95404.11
2019-02-20T03:55:59.534Z,95392.95
2019-02-20T03:58:25.537Z,95396.95
2019-02-20T04:00:51.569Z,95392.95
2019-02-20T04:03:17.575Z,95391.20
2019-02-20T04:05:43.585Z,95383.72
2019-02-20T04:08:09.584Z,95381.89
2019-02-20T04:10:35.584Z,95380.97
2019-02-20T04:13:01.589Z,95382.30
2019-02-20T04:15:27.588Z,95384.05
2019-02-20T04:17:53.595Z,95380.97
2019-02-20T04:20:19.588Z,95384.05
2019-02-20T04:22:45.589Z,95392.05
2019-02-20T04:25:11.615Z,95393.04
2019-02-20T04:27:37.611Z,95403.61
2019-02-20T04:30:03.608Z,95399.28
2019-02-20T04:32:29.608Z,95397.45
2019-02-20T04:34:55.614Z,95395.28
2019-02-20T04:37:21.628Z,95407.19
2019-02-20T04:39:47.627Z,95405.86
2019-02-20T04:42:13.619Z,95399.70
2019-02-20T04:44:39.625Z,95397.03
2019-02-20T04:47:05.610Z,95396.12
2019-02-20T04:49:31.630Z,95390.37
2019-02-20T04:51:57.632Z,95393.16
2019-02-20T04:54:23.700Z,95393.16
2019-02-20T04:56:49.738Z,95397.14
2019-02-20T04:59:15.742Z,95398.36
2019-02-20T05:01:41.735Z,95397.14
2019-02-20T05:04:07.746Z,95396.61
2019-02-20T05:06:33.742Z,95405.86
2019-02-20T05:08:59.738Z,95408.22
2019-02-20T05:11:25.737Z,95403.80
2019-02-20T05:13:51.747Z,95405.55
2019-02-20T05:16:17.742Z,95406.47
2019-02-20T05:18:43.750Z,95406.88
2019-02-20T05:21:09.740Z,95409.02
2019-02-20T05:23:35.759Z,95410.05
2019-02-20T05:26:01.758Z,95413.54
2019-02-20T05:28:27.757Z,95415.78
2019-02-20T05:30:53.863Z,95419.67
2019-02-20T05:33:19.874Z,95422.02
2019-02-20T05:35:45.882Z,95426.33
2019-02-20T05:38:11.876Z,95429.91
2019-02-20T05:40:37.898Z,95435.64
2019-02-20T05:43:03.892Z,95436.56
2019-02-20T05:45:29.891Z,95445.88
2019-02-20T05:47:55.898Z,95446.41
2019-02-20T05:50:21.933Z,95441.16
2019-02-20T05:52:47.949Z,95446.41
2019-02-20T05:55:13.939Z,95453.87
2019-02-20T05:57:39.952Z,95456.95
2019-02-20T06:00:05.944Z,95454.28
2019-02-20T06:02:31.941Z,95450.63
2019-02-20T06:04:57.976Z,95456.34
2019-02-20T06:07:24.055Z,95456.87
2019-02-20T06:09:50.061Z,95456.76
2019-02-20T06:12:16.060Z,95460.75
2019-02-20T06:14:42.071Z,95459.53
2019-02-20T06:17:08.080Z,95460.03
2019-02-20T06:19:34.127Z,95460.86
2019-02-20T06:22:00.138Z,95463.61
2019-02-20T06:24:26.156Z,95468.02
2019-02-20T06:26:52.160Z,95476.12
2019-02-20T06:29:18.173Z,95486.24
2019-02-20T06:31:44.217Z,95486.66
2019-02-20T06:34:10.204Z,95488.48
2019-02-20T06:36:36.210Z,95487.69
2019-02-20T06:39:02.288Z,95492.09
2019-02-20T06:41:28.298Z,95494.23
2019-02-20T06:43:54.298Z,95493.43
2019-02-20T06:46:20.312Z,95496.89
2019-02-20T06:48:46.320Z,95497.42
2019-02-20T06:51:12.319Z,95497.81
2019-02-20T06:53:38.346Z,95506.74
2019-02-20T06:56:04.429Z,95507.13
2019-02-20T06:58:30.392Z,95508.98
2019-02-20T07:00:56.392Z,95505.91
2019-02-20T07:03:22.394Z,95507.23
2019-02-20T07:05:48.419Z,95508.98
2019-02-20T07:08:14.420Z,95505.91
2019-02-20T07:10:40.425Z,95505.41
2019-02-20T07:13:06.458Z,95505.41
2019-02-20T07:15:32.506Z,95504.88
2019-02-20T07:17:58.505Z,95509.41
2019-02-20T07:20:24.540Z,95508.07
2019-02-20T07:22:50.559Z,95508.98
2019-02-20T07:25:16.564Z,95511.54
2019-02-20T07:27:42.560Z,95508.65
2019-02-20T07:30:08.637Z,95508.46
2019-02-20T07:32:34.645Z,95508.46
2019-02-20T07:35:00.685Z,95507.97
2019-02-20T07:37:26.699Z,95500.09
2019-02-20T07:39:52.727Z,95502.22
2019-02-20T07:42:18.772Z,95499.25
2019-02-20T07:44:44.801Z,95503.13
2019-02-20T07:47:10.799Z,95509.91
2019-02-20T07:49:36.824Z,95508.98
2019-02-20T07:52:02.830Z,95513.40
2019-02-20T07:54:28.844Z,95512.37
2019-02-20T07:56:54.941Z,95508.46
2019-02-20T07:59:20.944Z,95508.38
2019-02-20T08:01:46.984Z,95506.22
2019-02-20T08:04:12.983Z,95503.05
2019-02-20T08:06:39.011Z,95504.80
2019-02-20T08:09:05.021Z,95502.45
2019-02-20T08:11:31.011Z,95510.85
2019-02-20T08:13:57.017Z,95507.69
2019-02-20T08:16:23.011Z,95497.95
2019-02-20T08:18:49.094Z,95501.42
2019-02-20T08:21:15.070Z,95501.34
2019-02-20T08:23:41.085Z,95499.59
2019-02-20T08:26:07.101Z,95503.09
2019-02-20T08:28:33.098Z,95504.27
2019-02-20T08:30:59.122Z,95495.34
2019-02-20T08:33:25.123Z,95499.53
2019-02-20T08:35:51.135Z,95498.67
2019-02-20T08:38:17.137Z,95498.75
2019-02-20T08:40:43.141Z,95498.89
2019-02-20T08:43:09.150Z,95500.11
2019-02-20T08:45:35.146Z,95496.42
2019-02-20T08:48:01.151Z,95499.39
2019-02-20T08:50:27.148Z,95496.50
2019-02-20T08:52:53.159Z,95498.75
2019-02-20T08:55:19.184Z,95499.27
2019-02-20T08:57:45.183Z,95494.36
2019-02-20T09:00:11.185Z,95499.16
2019-02-20T09:02:37.197Z,95501.83
2019-02-20T09:05:03.193Z,95495.70
2019-02-20T09:07:29.197Z,95499.58
2019-02-20T09:09:55.196Z,95496.50
2019-02-20T09:12:21.201Z,95503.58
2019-02-20T09:14:47.365Z,95500.50
2019-02-20T09:17:13.371Z,95499.70
2019-02-20T09:19:39.402Z,95496.61
2019-02-20T09:22:05.362Z,95488.70
2019-02-20T09:24:31.369Z,95486.04
2019-02-20T09:26:57.383Z,95484.21
2019-02-20T09:29:23.378Z,95491.78
2019-02-20T09:31:49.378Z,95482.96
2019-02-20T09:34:15.416Z,95484.70
2019-02-20T09:36:41.638Z,95488.81
2019-02-20T09:39:07.641Z,95493.23
2019-02-20T09:41:33.650Z,95489.73
2019-02-20T09:43:59.644Z,95481.73
2019-02-20T09:46:25.640Z,95475.16
2019-02-20T09:48:51.652Z,95476.83
2019-02-20T09:51:17.670Z,95472.83
2019-02-20T09:53:43.675Z,95461.34
2019-02-20T09:56:09.678Z,95466.67
2019-02-20T09:58:35.694Z,95470.67
2019-02-20T10:01:02.917Z,95462.67
2019-02-20T10:03:27.758Z,95453.85
2019-02-20T10:05:53.774Z,95453.05
2019-02-20T10:08:19.777Z,95444.64
2019-02-20T10:10:45.781Z,95447.20
2019-02-20T10:13:11.778Z,95447.20
2019-02-20T10:15:37.785Z,95439.20
2019-02-20T10:18:03.787Z,95428.47
2019-02-20T10:20:29.794Z,95432.47
2019-02-20T10:22:55.793Z,95427.14
2019-02-20T10:25:21.798Z,95416.37
2019-02-20T10:27:47.830Z,95414.13
2019-02-20T10:30:13.846Z,95416.79
2019-02-20T10:32:39.905Z,95412.30
2019-02-20T10:35:05.912Z,95402.55
2019-02-20T10:37:31.961Z,95392.73
2019-02-20T10:39:57.964Z,95394.38
2019-02-20T10:42:23.970Z,95392.02
2019-02-20T10:44:49.959Z,95397.34
2019-02-20T10:47:15.966Z,95387.02
2019-02-20T10:49:41.967Z,95378.20
2019-02-20T10:52:08.004Z,95379.83
2019-02-20T10:54:34.002Z,95383.33
2019-02-20T10:57:00.018Z,95373.01
2019-02-20T10:59:26.124Z,95364.68
2019-02-20T11:01:52.133Z,95367.68
2019-02-20T11:04:18.145Z,95371.98
2019-02-20T11:06:44.173Z,95362.66
2019-02-20T11:09:10.196Z,95356.41
2019-02-20T11:11:36.215Z,95365.63
2019-02-20T11:14:02.227Z,95351.80
2019-02-20T11:16:29.127Z,95353.97
2019-02-20T11:18:55.142Z,95360.52
2019-02-20T11:21:21.137Z,95354.27
2019-02-20T11:23:47.143Z,95356.02
2019-02-20T11:26:18.274Z,95364.43
2019-02-20T11:28:39.228Z,95365.77
2019-02-20T11:31:05.230Z,95359.82
2019-02-20T11:33:31.227Z,95349.97
2019-02-20T11:35:57.230Z,95354.80
2019-02-20T11:38:23.342Z,95358.70
2019-02-20T11:40:49.370Z,95351.02
2019-02-20T11:43:15.384Z,95353.08
2019-02-20T11:45:41.383Z,95347.66
2019-02-20T11:48:07.399Z,95341.38
2019-02-20T11:50:33.441Z,95350.21
2019-02-20T11:52:59.442Z,95326.15
2019-02-20T11:55:25.441Z,95342.86
2019-02-20T11:57:51.468Z,95347.35
2019-02-20T12:00:17.476Z,95348.98
2019-02-20T12:02:43.478Z,95339.16
2019-02-20T12:05:09.487Z,95335.47
2019-02-20T12:07:35.497Z,95343.87
2019-02-20T12:10:01.528Z,95327.20
2019-02-20T12:12:27.497Z,95340.81
2019-02-20T12:14:53.497Z,95349.23
2019-02-20T12:17:19.505Z,95343.81
2019-02-20T12:19:45.507Z,95352.61
2019-02-20T12:22:11.526Z,95348.53
2019-02-20T12:24:37.553Z,95350.16
2019-02-20T12:27:03.603Z,95347.91
2019-02-20T12:29:30.131Z,95343.42
2019-02-20T12:31:55.605Z,95345.17
2019-02-20T12:34:21.609Z,95352.55
2019-02-20T12:36:47.623Z,95349.58
2019-02-20T12:39:13.653Z,95348.27
2019-02-20T12:41:40.337Z,95344.98
2019-02-20T12:44:05.657Z,95347.97
2019-02-20T12:46:31.672Z,95337.73
2019-02-20T12:48:57.697Z,95336.61
2019-02-20T12:51:23.743Z,95340.83
2019-02-20T12:53:49.788Z,95330.06
2019-02-20T12:56:15.786Z,95333.38
2019-02-20T12:58:41.823Z,95343.63
2019-02-20T13:01:07.845Z,95329.47
2019-02-20T13:03:33.854Z,95341.96
2019-02-20T13:05:59.857Z,95334.30
2019-02-20T13:08:25.853Z,95342.80
2019-02-20T13:10:51.862Z,95338.72
2019-02-20T13:13:17.863Z,95331.85
2019-02-20T13:15:43.868Z,95335.16
2019-02-20T13:18:10.017Z,95340.70
2019-02-20T13:20:35.962Z,95333.30
2019-02-20T13:23:01.971Z,95341.42
2019-02-20T13:25:27.976Z,95331.05
2019-02-20T13:27:54.045Z,95333.64
2019-02-20T13:30:20.037Z,95335.27
2019-02-20T13:32:46.035Z,95335.57
2019-02-20T13:35:12.088Z,95327.70
2019-02-20T13:37:38.089Z,95341.25
2019-02-20T13:40:04.106Z,95342.79
2019-02-20T13:42:32.020Z,95340.01
2019-02-20T13:44:56.121Z,95339.92
2019-02-20T13:47:22.133Z,95344.12
2019-02-20T13:49:48.139Z,95342.97
2019-02-20T13:52:14.154Z,95339.39
2019-02-20T13:54:40.152Z,95348.64
2019-02-20T13:57:06.153Z,95349.55
2019-02-20T13:59:32.171Z,95349.64
2019-02-20T14:01:58.173Z,95350.89
2019-02-20T14:04:24.182Z,95352.00
2019-02-20T14:06:50.174Z,95359.92
2019-02-20T14:09:16.177Z,95357.64
2019-02-20T14:11:43.798Z,95353.75
2019-02-20T14:14:08.955Z,95367.08
2019-02-20T14:16:34.213Z,95356.42
2019-02-20T14:19:00.213Z,95364.11
2019-02-20T14:21:26.959Z,95357.95
2019-02-20T14:23:52.230Z,95363.36
2019-02-20T14:26:18.242Z,95368.20
2019-02-20T14:28:44.259Z,95366.45
2019-02-20T14:31:10.247Z,95365.73
2019-02-20T14:33:36.253Z,95372.20
2019-02-20T14:36:02.259Z,95367.36
2019-02-20T14:38:28.264Z,95370.03
2019-02-20T14:40:54.267Z,95368.70
2019-02-20T14:43:20.259Z,95370.03
2019-02-20T14:45:46.292Z,95376.70
2019-02-20T14:48:12.302Z,95378.36
2019-02-20T14:50:38.321Z,95370.98
2019-02-20T14:53:04.317Z,95373.23
2019-02-20T14:55:30.320Z,95372.51
2019-02-20T14:57:56.378Z,95375.17
2019-02-20T15:00:22.377Z,95375.26
2019-02-20T15:02:48.379Z,95384.17
2019-02-20T15:05:14.410Z,95376.79
2019-02-20T15:07:40.430Z,95378.62
2019-02-20T15:10:06.441Z,95381.41
2019-02-20T15:12:32.447Z,95377.48
2019-02-20T15:14:58.456Z,95372.27
2019-02-20T15:17:24.462Z,95378.22
2019-02-20T15:19:50.457Z,95379.22
2019-02-20T15:22:16.467Z,95379.33
2019-02-20T15:24:42.464Z,95383.33
2019-02-20T15:27:08.484Z,95385.28
2019-02-20T15:29:34.480Z,95381.36
2019-02-20T15:32:00.549Z,95392.44
2019-02-20T15:34:26.483Z,95387.22
2019-02-20T15:36:52.488Z,95394.44
2019-02-20T15:39:18.483Z,95397.72
2019-02-20T15:41:44.534Z,95388.89
2019-02-20T15:44:10.565Z,95390.03
2019-02-20T15:46:36.619Z,95393.61
2019-02-20T15:49:02.609Z,95396.78
2019-02-20T15:51:28.612Z,95398.72
2019-02-20T15:53:54.617Z,95401.47
2019-02-20T15:56:20.614Z,95406.91
2019-02-20T15:58:46.675Z,95409.28
2019-02-20T16:01:12.652Z,95410.28
2019-02-20T16:03:38.663Z,95410.89
2019-02-20T16:06:04.658Z,95410.59
2019-02-20T16:08:30.691Z,95415.08
2019-02-20T16:10:56.708Z,95420.53
2019-02-20T16:13:22.691Z,95422.86
2019-02-20T16:15:48.705Z,95425.11
2019-02-20T16:18:14.695Z,95428.80
2019-02-20T16:20:40.697Z,95432.08
2019-02-20T16:23:06.696Z,95442.81
2019-02-20T16:25:32.716Z,95450.81
2019-02-20T16:27:58.730Z,95448.75
2019-02-20T16:30:24.729Z,95443.55
2019-02-20T16:32:51.312Z,95441.38
2019-02-20T16:35:16.755Z,95452.53
2019-02-20T16:37:42.750Z,95457.55
2019-02-20T16:40:08.743Z,95458.05
2019-02-20T16:42:34.754Z,95470.46
2019-02-20T16:45:00.747Z,95472.41
2019-02-20T16:47:26.750Z,95476.90
2019-02-20T16:49:52.759Z,95478.34
2019-02-20T16:52:18.756Z,95480.17
2019-02-20T16:54:44.747Z,95487.33
2019-02-20T16:57:10.922Z,95492.28
2019-02-20T16:59:36.911Z,95497.69
2019-02-20T17:02:02.924Z,95493.28
2019-02-20T17:04:28.924Z,95492.55
2019-02-20T17:06:54.928Z,95499.62
2019-02-20T17:09:20.929Z,95499.33
2019-02-20T17:11:46.927Z,95508.66
2019-02-20T17:14:12.933Z,95506.48
2019-02-20T17:16:38.930Z,95519.39
2019-02-20T17:19:04.945Z,95514.56
2019-02-20T17:21:30.944Z,95524.41
2019-02-20T17:23:56.971Z,95527.99
2019-02-20T17:26:22.966Z,95529.82
2019-02-20T17:28:48.969Z,95538.23
2019-02-20T17:31:14.973Z,95532.91
2019-02-20T17:33:41.066Z,95527.16
2019-02-20T17:36:07.071Z,95531.57
2019-02-20T17:38:33.089Z,95528.60
2019-02-20T17:40:59.125Z,95541.50
2019-02-20T17:43:25.124Z,95542.84
2019-02-20T17:45:51.329Z,95545.08
2019-02-20T17:48:19.095Z,95543.33
2019-02-20T17:50:43.408Z,95549.19
2019-02-20T17:53:09.417Z,95552.35
2019-02-20T17:55:35.410Z,95554.59
2019-02-20T17:58:01.459Z,95562.28
2019-02-20T18:00:27.460Z,95566.28
2019-02-20T18:02:53.472Z,95571.69
2019-02-20T18:05:19.473Z,95571.27
2019-02-20T18:07:49.717Z,95569.55
2019-02-20T18:10:11.524Z,95577.12
2019-02-20T18:12:37.519Z,95579.38
2019-02-20T18:15:03.521Z,95582.23
2019-02-20T18:17:29.522Z,95581.73
2019-02-20T18:19:55.538Z,95583.56
2019-02-20T18:22:21.547Z,95591.55
2019-02-20T18:24:47.568Z,95590.22
2019-02-20T18:27:13.564Z,95592.77
2019-02-20T18:29:39.574Z,95585.31
2019-02-20T18:32:05.574Z,95581.20
2019-02-20T18:34:31.614Z,95588.78
2019-02-20T18:36:57.607Z,95597.61
2019-02-20T18:39:23.601Z,95602.02
2019-02-20T18:41:49.653Z,95600.19
2019-02-20T18:44:15.648Z,95603.77
2019-02-20T18:46:41.656Z,95603.35
2019-02-20T18:49:07.696Z,95604.91
2019-02-20T18:51:33.702Z,95603.58
2019-02-20T18:53:59.815Z,95606.73
2019-02-20T18:56:25.807Z,95617.63
2019-02-20T18:58:51.804Z,95620.29
2019-02-20T19:01:17.841Z,95615.64
2019-02-20T19:03:43.823Z,95628.51
2019-02-20T19:06:09.810Z,95628.51
2019-02-20T19:08:35.802Z,95627.06
2019-02-20T19:11:01.871Z,95626.64
2019-02-20T19:13:27.963Z,95635.89
2019-02-20T19:15:53.877Z,95640.31
2019-02-20T19:18:19.928Z,95641.53
2019-02-20T19:20:45.898Z,95637.53
2019-02-20T19:23:11.912Z,95643.70
2019-02-20T19:25:37.909Z,95653.44
2019-02-20T19:28:03.895Z,95651.20
2019-02-20T19:30:29.914Z,95644.00
2019-02-20T19:32:55.884Z,95646.25
2019-02-20T19:35:21.891Z,95642.25
2019-02-20T19:37:47.904Z,95651.00
2019-02-20T19:40:13.935Z,95648.73
2019-02-20T19:42:39.934Z,95651.39
2019-02-20T19:45:05.931Z,95657.25
2019-02-20T19:47:31.948Z,95653.52
2019-02-20T19:49:57.998Z,95659.50
2019-02-20T19:52:23.954Z,95661.66
2019-02-20T19:54:49.990Z,95663.00
2019-02-20T19:57:15.961Z,95663.38
2019-02-20T19:59:44.670Z,95663.00
2019-02-20T20:02:07.971Z,95662.58
2019-02-20T20:04:33.954Z,95661.55
2019-02-20T20:07:02.669Z,95655.91
2019-02-20T20:09:26.006Z,95662.58
2019-02-20T20:11:52.022Z,95659.91
2019-02-20T20:14:18.122Z,95659.58
2019-02-20T20:16:44.037Z,95659.38
2019-02-20T20:19:10.069Z,95656.83
2019-02-20T20:21:36.081Z,95660.41
2019-02-20T20:24:02.059Z,95658.16
2019-02-20T20:26:28.051Z,95656.34
2019-02-20T20:28:54.066Z,95657.14
2019-02-20T20:31:22.033Z,95657.14
2019-02-20T20:33:48.075Z,95654.47
2019-02-20T20:36:14.036Z,95655.50
2019-02-20T20:38:40.031Z,95664.22
2019-02-20T20:41:06.033Z,95660.33
2019-02-20T20:43:32.579Z,95660.72
2019-02-20T20:45:58.986Z,95664.22
2019-02-20T20:48:24.983Z,95666.58
2019-02-20T20:50:52.267Z,95666.99
2019-02-20T20:53:18.280Z,95668.33
2019-02-20T20:55:44.299Z,95671.37
2019-02-20T20:58:10.803Z,95675.79
2019-02-20T21:00:36.839Z,95678.98
2019-02-20T21:03:02.807Z,95678.87
2019-02-20T21:05:28.809Z,95678.87
2019-02-20T21:07:54.805Z,95674.45
2019-02-20T21:10:20.833Z,95677.95
2019-02-20T21:12:46.832Z,95681.53
2019-02-20T21:15:12.846Z,95686.45
2019-02-20T21:17:38.848Z,95684.62
2019-02-20T21:20:04.848Z,95680.63
2019-02-20T21:22:30.857Z,95681.53
2019-02-20T21:24:56.853Z,95682.45
2019-02-20T21:27:22.858Z,95684.62
2019-02-20T21:29:48.849Z,95686.45
2019-02-20T21:32:14.854Z,95690.03
2019-02-20T21:34:40.847Z,95690.03
2019-02-20T21:37:06.856Z,95684.70
2019-02-20T21:39:32.848Z,95688.80
2019-02-20T21:41:58.847Z,95688.31
2019-02-20T21:44:24.855Z,95684.89
2019-02-20T21:46:50.876Z,95690.63
2019-02-20T21:49:16.867Z,95695.96
2019-02-20T21:51:42.869Z,95695.16
2019-02-20T21:54:08.867Z,95696.98
2019-02-20T21:56:34.882Z,95697.48
2019-02-20T21:59:00.890Z,95701.48
2019-02-20T22:01:26.887Z,95703.73
2019-02-20T22:03:52.885Z,95702.92
2019-02-20T22:06:18.895Z,95704.75
2019-02-20T22:08:44.883Z,95708.75
2019-02-20T22:11:10.885Z,95707.91
2019-02-20T22:13:36.927Z,95713.23
2019-02-20T22:16:02.954Z,95720.42
2019-02-20T22:18:28.923Z,95719.59
2019-02-20T22:20:54.939Z,95717.42
2019-02-20T22:23:20.940Z,95713.84
2019-02-20T22:25:46.945Z,95717.53
2019-02-20T22:28:12.953Z,95723.36
2019-02-20T22:30:38.938Z,95725.11
2019-02-20T22:33:04.941Z,95724.61
2019-02-20T22:35:30.930Z,95724.69
2019-02-20T22:37:56.933Z,95719.89
2019-02-20T22:40:22.920Z,95720.80
2019-02-20T22:42:48.920Z,95714.75
2019-02-20T22:45:14.916Z,95719.97
2019-02-20T22:47:40.930Z,95719.55
2019-02-20T22:50:06.936Z,95713.41
2019-02-20T22:52:32.925Z,95713.00
2019-02-20T22:54:58.934Z,95710.41
2019-02-20T22:57:24.929Z,95710.83
2019-02-20T23:00:01.188Z,95709.91
2019-02-20T23:02:16.929Z,95716.27
2019-02-20T23:04:42.923Z,95709.99
2019-02-20T23:07:08.919Z,95712.34
2019-02-20T23:09:34.929Z,95711.02
2019-02-20T23:12:00.931Z,95709.27
2019-02-20T23:14:26.930Z,95712.45
2019-02-20T23:16:52.931Z,95717.26
2019-02-20T23:19:18.928Z,95717.78
2019-02-20T23:21:44.925Z,95716.45
2019-02-20T23:24:10.925Z,95714.28
2019-02-20T23:26:36.925Z,95710.78
2019-02-20T23:29:02.932Z,95719.20
2019-02-20T23:31:28.923Z,95710.37
2019-02-20T23:33:54.941Z,95709.56
2019-02-20T23:36:20.944Z,95711.70
2019-02-20T23:38:46.944Z,95711.31
2019-02-20T23:41:12.967Z,95707.39
2019-02-20T23:43:38.968Z,95718.47
2019-02-20T23:46:04.976Z,95710.48
2019-02-20T23:48:30.968Z,95715.08
2019-02-20T23:50:56.976Z,95716.80
2019-02-20T23:53:22.986Z,95714.97
2019-02-20T23:55:48.969Z,95717.21
2019-02-20T23:58:14.959Z,95719.56
